sensor_id;sensor_type;location;lat;lon;timestamp;P1;durP1;ratioP1;P2;durP2;ratioP2
66143;SDS011;52947;50.842;6.084;2022-12-18T00:01:26;30.52;;;15.20;;
66143;SDS011;52947;50.842;6.084;2022-12-18T00:03:55;32.00;;;14.05;;
66143;SDS011;52947;50.842;6.084;2022-12-18T00:06:23;29.73;;;14.53;;
66143;SDS011;52947;50.842;6.084;2022-12-18T00:08:54;30.55;;;15.23;;
66143;SDS011;52947;50.842;6.084;2022-12-18T00:11:23;36.03;;;17.23;;
66143;SDS011;52947;50.842;6.084;2022-12-18T00:13:53;44.65;;;20.80;;
66143;SDS011;52947;50.842;6.084;2022-12-18T00:16:22;46.90;;;20.25;;
66143;SDS011;52947;50.842;6.084;2022-12-18T00:18:54;29.67;;;16.92;;
66143;SDS011;52947;50.842;6.084;2022-12-18T00:21:23;29.27;;;15.63;;
66143;SDS011;52947;50.842;6.084;2022-12-18T00:23:52;31.45;;;17.00;;
66143;SDS011;52947;50.842;6.084;2022-12-18T00:26:21;27.52;;;14.38;;
66143;SDS011;52947;50.842;6.084;2022-12-18T00:28:54;30.40;;;15.07;;
66143;SDS011;52947;50.842;6.084;2022-12-18T00:31:25;35.00;;;18.00;;
66143;SDS011;52947;50.842;6.084;2022-12-18T00:33:55;33.40;;;16.37;;
66143;SDS011;52947;50.842;6.084;2022-12-18T00:36:24;30.88;;;15.30;;
66143;SDS011;52947;50.842;6.084;2022-12-18T00:38:54;29.63;;;14.45;;
66143;SDS011;52947;50.842;6.084;2022-12-18T00:41:22;30.90;;;15.93;;
66143;SDS011;52947;50.842;6.084;2022-12-18T00:44:09;31.92;;;15.82;;
66143;SDS011;52947;50.842;6.084;2022-12-18T00:46:38;28.92;;;14.88;;
66143;SDS011;52947;50.842;6.084;2022-12-18T00:49:08;35.15;;;15.93;;
66143;SDS011;52947;50.842;6.084;2022-12-18T00:51:36;36.63;;;17.98;;
66143;SDS011;52947;50.842;6.084;2022-12-18T00:54:04;44.10;;;20.10;;
66143;SDS011;52947;50.842;6.084;2022-12-18T00:56:32;38.25;;;18.63;;
66143;SDS011;52947;50.842;6.084;2022-12-18T00:59:00;39.53;;;18.08;;
66143;SDS011;52947;50.842;6.084;2022-12-18T01:01:28;31.08;;;16.33;;
66143;SDS011;52947;50.842;6.084;2022-12-18T01:03:56;32.10;;;16.55;;
66143;SDS011;52947;50.842;6.084;2022-12-18T01:06:27;36.92;;;17.35;;
66143;SDS011;52947;50.842;6.084;2022-12-18T01:11:23;32.75;;;16.45;;
66143;SDS011;52947;50.842;6.084;2022-12-18T01:13:51;29.80;;;15.80;;
66143;SDS011;52947;50.842;6.084;2022-12-18T01:16:21;30.73;;;14.70;;
66143;SDS011;52947;50.842;6.084;2022-12-18T01:18:51;30.33;;;14.13;;
66143;SDS011;52947;50.842;6.084;2022-12-18T01:21:20;29.02;;;13.77;;
66143;SDS011;52947;50.842;6.084;2022-12-18T01:23:52;29.08;;;14.82;;
66143;SDS011;52947;50.842;6.084;2022-12-18T01:26:22;25.13;;;12.50;;
66143;SDS011;52947;50.842;6.084;2022-12-18T01:28:50;23.60;;;12.50;;
66143;SDS011;52947;50.842;6.084;2022-12-18T01:31:19;25.17;;;12.88;;
66143;SDS011;52947;50.842;6.084;2022-12-18T01:33:48;28.02;;;14.18;;
66143;SDS011;52947;50.842;6.084;2022-12-18T01:36:18;22.58;;;12.35;;
66143;SDS011;52947;50.842;6.084;2022-12-18T01:38:50;28.05;;;13.00;;
66143;SDS011;52947;50.842;6.084;2022-12-18T01:41:20;21.80;;;12.07;;
66143;SDS011;52947;50.842;6.084;2022-12-18T01:43:50;24.35;;;13.07;;
66143;SDS011;52947;50.842;6.084;2022-12-18T01:46:20;30.80;;;15.27;;
66143;SDS011;52947;50.842;6.084;2022-12-18T01:48:50;27.63;;;13.52;;
66143;SDS011;52947;50.842;6.084;2022-12-18T01:51:20;27.67;;;13.63;;
66143;SDS011;52947;50.842;6.084;2022-12-18T01:53:49;28.33;;;12.57;;
66143;SDS011;52947;50.842;6.084;2022-12-18T01:56:18;25.98;;;12.90;;
66143;SDS011;52947;50.842;6.084;2022-12-18T01:58:50;17.27;;;8.85;;
66143;SDS011;52947;50.842;6.084;2022-12-18T02:01:23;13.55;;;6.78;;
66143;SDS011;52947;50.842;6.084;2022-12-18T02:03:52;15.38;;;7.55;;
66143;SDS011;52947;50.842;6.084;2022-12-18T02:06:21;13.73;;;6.47;;
66143;SDS011;52947;50.842;6.084;2022-12-18T02:09:02;14.50;;;6.25;;
66143;SDS011;52947;50.842;6.084;2022-12-18T02:11:41;11.95;;;6.13;;
66143;SDS011;52947;50.842;6.084;2022-12-18T02:14:17;12.43;;;7.40;;
66143;SDS011;52947;50.842;6.084;2022-12-18T02:16:55;9.90;;;5.60;;
66143;SDS011;52947;50.842;6.084;2022-12-18T02:19:44;10.73;;;5.82;;
66143;SDS011;52947;50.842;6.084;2022-12-18T02:22:25;14.98;;;7.53;;
66143;SDS011;52947;50.842;6.084;2022-12-18T02:24:59;17.02;;;8.35;;
66143;SDS011;52947;50.842;6.084;2022-12-18T02:27:35;15.50;;;7.53;;
66143;SDS011;52947;50.842;6.084;2022-12-18T02:30:05;13.43;;;7.25;;
66143;SDS011;52947;50.842;6.084;2022-12-18T02:32:37;11.98;;;6.25;;
66143;SDS011;52947;50.842;6.084;2022-12-18T02:35:12;14.05;;;6.80;;
66143;SDS011;52947;50.842;6.084;2022-12-18T02:37:45;12.00;;;6.40;;
66143;SDS011;52947;50.842;6.084;2022-12-18T02:45:15;13.75;;;7.38;;
66143;SDS011;52947;50.842;6.084;2022-12-18T02:47:45;15.45;;;7.43;;
66143;SDS011;52947;50.842;6.084;2022-12-18T02:50:16;14.93;;;7.05;;
66143;SDS011;52947;50.842;6.084;2022-12-18T02:52:55;13.20;;;7.47;;
66143;SDS011;52947;50.842;6.084;2022-12-18T02:55:35;13.95;;;6.88;;
66143;SDS011;52947;50.842;6.084;2022-12-18T02:58:17;14.80;;;7.53;;
66143;SDS011;52947;50.842;6.084;2022-12-18T03:00:52;16.30;;;7.90;;
66143;SDS011;52947;50.842;6.084;2022-12-18T03:03:29;18.27;;;7.88;;
66143;SDS011;52947;50.842;6.084;2022-12-18T03:06:04;16.77;;;7.60;;
66143;SDS011;52947;50.842;6.084;2022-12-18T03:08:36;13.68;;;6.95;;
66143;SDS011;52947;50.842;6.084;2022-12-18T03:11:07;14.30;;;6.85;;
66143;SDS011;52947;50.842;6.084;2022-12-18T03:13:40;14.45;;;6.63;;
66143;SDS011;52947;50.842;6.084;2022-12-18T03:16:14;14.85;;;7.20;;
66143;SDS011;52947;50.842;6.084;2022-12-18T03:18:45;12.48;;;6.85;;
66143;SDS011;52947;50.842;6.084;2022-12-18T03:21:17;15.57;;;6.82;;
66143;SDS011;52947;50.842;6.084;2022-12-18T03:23:50;11.35;;;6.30;;
66143;SDS011;52947;50.842;6.084;2022-12-18T03:26:24;14.07;;;6.40;;
66143;SDS011;52947;50.842;6.084;2022-12-18T03:29:00;13.45;;;6.45;;
66143;SDS011;52947;50.842;6.084;2022-12-18T03:31:33;13.95;;;7.10;;
66143;SDS011;52947;50.842;6.084;2022-12-18T03:34:03;13.55;;;7.63;;
66143;SDS011;52947;50.842;6.084;2022-12-18T03:39:10;15.68;;;7.30;;
66143;SDS011;52947;50.842;6.084;2022-12-18T03:41:41;11.35;;;6.47;;
66143;SDS011;52947;50.842;6.084;2022-12-18T03:44:23;13.93;;;7.38;;
66143;SDS011;52947;50.842;6.084;2022-12-18T03:46:58;12.98;;;7.55;;
66143;SDS011;52947;50.842;6.084;2022-12-18T03:49:34;13.32;;;6.53;;
66143;SDS011;52947;50.842;6.084;2022-12-18T03:52:06;13.93;;;6.70;;
66143;SDS011;52947;50.842;6.084;2022-12-18T03:54:39;14.20;;;7.20;;
66143;SDS011;52947;50.842;6.084;2022-12-18T03:57:13;12.85;;;7.50;;
66143;SDS011;52947;50.842;6.084;2022-12-18T03:59:47;15.25;;;7.25;;
66143;SDS011;52947;50.842;6.084;2022-12-18T04:02:19;15.52;;;7.07;;
66143;SDS011;52947;50.842;6.084;2022-12-18T04:04:50;12.40;;;6.85;;
66143;SDS011;52947;50.842;6.084;2022-12-18T04:07:21;15.30;;;7.65;;
66143;SDS011;52947;50.842;6.084;2022-12-18T04:09:50;15.00;;;8.27;;
66143;SDS011;52947;50.842;6.084;2022-12-18T04:12:23;15.43;;;7.80;;
66143;SDS011;52947;50.842;6.084;2022-12-18T04:14:53;17.23;;;7.88;;
66143;SDS011;52947;50.842;6.084;2022-12-18T04:19:50;15.55;;;7.95;;
66143;SDS011;52947;50.842;6.084;2022-12-18T04:22:19;18.88;;;8.23;;
66143;SDS011;52947;50.842;6.084;2022-12-18T04:24:51;20.65;;;8.50;;
66143;SDS011;52947;50.842;6.084;2022-12-18T04:27:28;19.42;;;9.77;;
66143;SDS011;52947;50.842;6.084;2022-12-18T04:29:59;18.38;;;8.75;;
66143;SDS011;52947;50.842;6.084;2022-12-18T04:32:28;19.20;;;9.52;;
66143;SDS011;52947;50.842;6.084;2022-12-18T04:34:59;18.38;;;9.32;;
66143;SDS011;52947;50.842;6.084;2022-12-18T04:37:26;17.83;;;9.13;;
66143;SDS011;52947;50.842;6.084;2022-12-18T04:39:54;20.02;;;9.73;;
66143;SDS011;52947;50.842;6.084;2022-12-18T04:42:30;19.88;;;8.98;;
66143;SDS011;52947;50.842;6.084;2022-12-18T04:44:59;17.95;;;9.30;;
66143;SDS011;52947;50.842;6.084;2022-12-18T04:47:27;20.05;;;9.23;;
66143;SDS011;52947;50.842;6.084;2022-12-18T04:49:55;24.10;;;9.98;;
66143;SDS011;52947;50.842;6.084;2022-12-18T04:52:23;21.60;;;9.85;;
66143;SDS011;52947;50.842;6.084;2022-12-18T04:54:50;17.65;;;9.32;;
66143;SDS011;52947;50.842;6.084;2022-12-18T04:57:18;18.25;;;8.68;;
66143;SDS011;52947;50.842;6.084;2022-12-18T04:59:46;20.35;;;9.77;;
66143;SDS011;52947;50.842;6.084;2022-12-18T05:02:15;19.50;;;9.45;;
66143;SDS011;52947;50.842;6.084;2022-12-18T05:07:10;20.35;;;9.75;;
66143;SDS011;52947;50.842;6.084;2022-12-18T05:09:38;21.67;;;9.45;;
66143;SDS011;52947;50.842;6.084;2022-12-18T05:12:07;22.33;;;9.63;;
66143;SDS011;52947;50.842;6.084;2022-12-18T05:14:34;21.17;;;9.70;;
66143;SDS011;52947;50.842;6.084;2022-12-18T05:17:02;20.42;;;10.20;;
66143;SDS011;52947;50.842;6.084;2022-12-18T05:19:31;17.83;;;9.13;;
66143;SDS011;52947;50.842;6.084;2022-12-18T05:21:59;17.10;;;9.60;;
66143;SDS011;52947;50.842;6.084;2022-12-18T05:24:27;24.10;;;11.00;;
66143;SDS011;52947;50.842;6.084;2022-12-18T05:26:55;25.02;;;10.18;;
66143;SDS011;52947;50.842;6.084;2022-12-18T05:29:23;23.25;;;10.18;;
66143;SDS011;52947;50.842;6.084;2022-12-18T05:31:51;23.65;;;10.27;;
66143;SDS011;52947;50.842;6.084;2022-12-18T05:34:19;21.88;;;10.55;;
66143;SDS011;52947;50.842;6.084;2022-12-18T05:36:48;24.17;;;11.13;;
66143;SDS011;52947;50.842;6.084;2022-12-18T05:39:15;20.77;;;10.05;;
66143;SDS011;52947;50.842;6.084;2022-12-18T05:41:43;23.70;;;10.85;;
66143;SDS011;52947;50.842;6.084;2022-12-18T05:44:12;21.05;;;11.02;;
66143;SDS011;52947;50.842;6.084;2022-12-18T05:46:41;18.30;;;10.00;;
66143;SDS011;52947;50.842;6.084;2022-12-18T05:49:08;26.80;;;10.93;;
66143;SDS011;52947;50.842;6.084;2022-12-18T05:51:36;22.83;;;11.07;;
66143;SDS011;52947;50.842;6.084;2022-12-18T05:54:06;25.15;;;11.57;;
66143;SDS011;52947;50.842;6.084;2022-12-18T05:56:33;20.38;;;10.93;;
66143;SDS011;52947;50.842;6.084;2022-12-18T05:59:01;20.95;;;10.68;;
66143;SDS011;52947;50.842;6.084;2022-12-18T06:01:29;21.48;;;10.27;;
66143;SDS011;52947;50.842;6.084;2022-12-18T06:03:57;20.60;;;10.88;;
66143;SDS011;52947;50.842;6.084;2022-12-18T06:06:26;22.00;;;10.73;;
66143;SDS011;52947;50.842;6.084;2022-12-18T06:08:55;23.10;;;10.00;;
66143;SDS011;52947;50.842;6.084;2022-12-18T06:11:25;20.95;;;10.55;;
66143;SDS011;52947;50.842;6.084;2022-12-18T06:13:54;18.42;;;8.45;;
66143;SDS011;52947;50.842;6.084;2022-12-18T06:16:25;25.23;;;10.20;;
66143;SDS011;52947;50.842;6.084;2022-12-18T06:18:55;18.83;;;8.77;;
66143;SDS011;52947;50.842;6.084;2022-12-18T06:21:23;19.60;;;9.57;;
66143;SDS011;52947;50.842;6.084;2022-12-18T06:23:51;20.00;;;9.70;;
66143;SDS011;52947;50.842;6.084;2022-12-18T06:26:18;20.75;;;9.90;;
66143;SDS011;52947;50.842;6.084;2022-12-18T06:28:54;18.25;;;9.00;;
66143;SDS011;52947;50.842;6.084;2022-12-18T06:31:23;18.52;;;8.95;;
66143;SDS011;52947;50.842;6.084;2022-12-18T06:33:51;19.25;;;9.18;;
66143;SDS011;52947;50.842;6.084;2022-12-18T06:36:20;21.13;;;9.05;;
66143;SDS011;52947;50.842;6.084;2022-12-18T06:38:47;17.70;;;8.73;;
66143;SDS011;52947;50.842;6.084;2022-12-18T06:41:16;20.65;;;9.02;;
66143;SDS011;52947;50.842;6.084;2022-12-18T06:43:45;17.27;;;9.82;;
66143;SDS011;52947;50.842;6.084;2022-12-18T06:46:14;27.33;;;10.48;;
66143;SDS011;52947;50.842;6.084;2022-12-18T06:51:10;19.70;;;9.90;;
66143;SDS011;52947;50.842;6.084;2022-12-18T06:53:38;18.83;;;9.75;;
66143;SDS011;52947;50.842;6.084;2022-12-18T06:56:06;23.20;;;9.57;;
66143;SDS011;52947;50.842;6.084;2022-12-18T06:58:36;20.23;;;10.13;;
66143;SDS011;52947;50.842;6.084;2022-12-18T07:01:06;23.98;;;10.50;;
66143;SDS011;52947;50.842;6.084;2022-12-18T07:03:36;24.92;;;10.18;;
66143;SDS011;52947;50.842;6.084;2022-12-18T07:06:05;20.98;;;10.80;;
66143;SDS011;52947;50.842;6.084;2022-12-18T07:08:33;20.92;;;10.27;;
66143;SDS011;52947;50.842;6.084;2022-12-18T07:11:02;22.13;;;11.32;;
66143;SDS011;52947;50.842;6.084;2022-12-18T07:16:03;21.05;;;9.98;;
66143;SDS011;52947;50.842;6.084;2022-12-18T07:18:45;17.23;;;10.52;;
66143;SDS011;52947;50.842;6.084;2022-12-18T07:21:14;23.60;;;10.65;;
66143;SDS011;52947;50.842;6.084;2022-12-18T07:23:43;19.30;;;10.25;;
66143;SDS011;52947;50.842;6.084;2022-12-18T07:26:11;23.27;;;12.15;;
66143;SDS011;52947;50.842;6.084;2022-12-18T07:28:40;26.55;;;12.23;;
66143;SDS011;52947;50.842;6.084;2022-12-18T07:31:10;21.13;;;11.13;;
66143;SDS011;52947;50.842;6.084;2022-12-18T07:33:39;21.27;;;10.57;;
66143;SDS011;52947;50.842;6.084;2022-12-18T07:36:09;23.40;;;12.00;;
66143;SDS011;52947;50.842;6.084;2022-12-18T07:38:37;25.20;;;11.88;;
66143;SDS011;52947;50.842;6.084;2022-12-18T07:41:06;24.00;;;11.82;;
66143;SDS011;52947;50.842;6.084;2022-12-18T07:43:35;22.00;;;10.77;;
66143;SDS011;52947;50.842;6.084;2022-12-18T07:48:32;17.27;;;9.65;;
66143;SDS011;52947;50.842;6.084;2022-12-18T07:51:00;21.85;;;11.05;;
66143;SDS011;52947;50.842;6.084;2022-12-18T07:53:30;20.10;;;11.07;;
66143;SDS011;52947;50.842;6.084;2022-12-18T07:58:46;19.65;;;10.55;;
66143;SDS011;52947;50.842;6.084;2022-12-18T08:01:14;20.90;;;10.38;;
66143;SDS011;52947;50.842;6.084;2022-12-18T08:03:42;22.42;;;10.63;;
66143;SDS011;52947;50.842;6.084;2022-12-18T08:06:10;19.77;;;10.23;;
66143;SDS011;52947;50.842;6.084;2022-12-18T08:08:39;20.70;;;10.25;;
66143;SDS011;52947;50.842;6.084;2022-12-18T08:11:08;19.95;;;9.82;;
66143;SDS011;52947;50.842;6.084;2022-12-18T08:13:36;23.83;;;10.63;;
66143;SDS011;52947;50.842;6.084;2022-12-18T08:16:05;21.35;;;10.25;;
66143;SDS011;52947;50.842;6.084;2022-12-18T08:18:35;20.88;;;10.43;;
66143;SDS011;52947;50.842;6.084;2022-12-18T08:21:07;19.15;;;10.40;;
66143;SDS011;52947;50.842;6.084;2022-12-18T08:23:36;20.33;;;10.27;;
66143;SDS011;52947;50.842;6.084;2022-12-18T08:26:09;20.63;;;11.00;;
66143;SDS011;52947;50.842;6.084;2022-12-18T08:28:37;20.83;;;10.15;;
66143;SDS011;52947;50.842;6.084;2022-12-18T08:31:06;18.97;;;10.23;;
66143;SDS011;52947;50.842;6.084;2022-12-18T08:33:35;22.15;;;10.85;;
66143;SDS011;52947;50.842;6.084;2022-12-18T08:36:05;22.17;;;11.07;;
66143;SDS011;52947;50.842;6.084;2022-12-18T08:38:33;24.70;;;11.52;;
66143;SDS011;52947;50.842;6.084;2022-12-18T08:41:01;18.77;;;9.52;;
66143;SDS011;52947;50.842;6.084;2022-12-18T08:43:33;23.80;;;12.65;;
66143;SDS011;52947;50.842;6.084;2022-12-18T08:46:19;20.85;;;10.13;;
66143;SDS011;52947;50.842;6.084;2022-12-18T08:48:50;18.75;;;9.60;;
66143;SDS011;52947;50.842;6.084;2022-12-18T08:51:18;16.80;;;8.32;;
66143;SDS011;52947;50.842;6.084;2022-12-18T08:53:47;13.87;;;7.10;;
66143;SDS011;52947;50.842;6.084;2022-12-18T08:56:15;20.13;;;8.02;;
66143;SDS011;52947;50.842;6.084;2022-12-18T08:58:44;16.58;;;8.60;;
66143;SDS011;52947;50.842;6.084;2022-12-18T09:01:13;14.38;;;8.35;;
66143;SDS011;52947;50.842;6.084;2022-12-18T09:03:41;21.08;;;8.73;;
66143;SDS011;52947;50.842;6.084;2022-12-18T09:06:12;16.42;;;8.40;;
66143;SDS011;52947;50.842;6.084;2022-12-18T09:08:42;17.67;;;8.63;;
66143;SDS011;52947;50.842;6.084;2022-12-18T09:11:12;18.95;;;8.77;;
66143;SDS011;52947;50.842;6.084;2022-12-18T09:13:41;19.00;;;8.43;;
66143;SDS011;52947;50.842;6.084;2022-12-18T09:16:10;16.08;;;7.95;;
66143;SDS011;52947;50.842;6.084;2022-12-18T09:18:38;18.08;;;8.57;;
66143;SDS011;52947;50.842;6.084;2022-12-18T09:21:07;19.83;;;9.30;;
66143;SDS011;52947;50.842;6.084;2022-12-18T09:26:04;13.90;;;7.78;;
66143;SDS011;52947;50.842;6.084;2022-12-18T09:28:32;18.02;;;9.25;;
66143;SDS011;52947;50.842;6.084;2022-12-18T09:31:03;18.35;;;10.43;;
66143;SDS011;52947;50.842;6.084;2022-12-18T09:33:34;37.72;;;19.95;;
66143;SDS011;52947;50.842;6.084;2022-12-18T09:36:04;16.27;;;8.77;;
66143;SDS011;52947;50.842;6.084;2022-12-18T09:38:33;15.32;;;7.63;;
66143;SDS011;52947;50.842;6.084;2022-12-18T09:41:03;11.65;;;6.85;;
66143;SDS011;52947;50.842;6.084;2022-12-18T09:43:41;16.13;;;8.00;;
66143;SDS011;52947;50.842;6.084;2022-12-18T09:46:15;15.18;;;8.23;;
66143;SDS011;52947;50.842;6.084;2022-12-18T09:48:49;15.95;;;8.23;;
66143;SDS011;52947;50.842;6.084;2022-12-18T09:51:19;19.63;;;8.98;;
66143;SDS011;52947;50.842;6.084;2022-12-18T09:53:52;15.75;;;8.40;;
66143;SDS011;52947;50.842;6.084;2022-12-18T09:56:23;16.80;;;8.50;;
66143;SDS011;52947;50.842;6.084;2022-12-18T09:58:55;19.85;;;9.65;;
66143;SDS011;52947;50.842;6.084;2022-12-18T10:01:26;17.67;;;9.57;;
66143;SDS011;52947;50.842;6.084;2022-12-18T10:04:10;15.88;;;8.55;;
66143;SDS011;52947;50.842;6.084;2022-12-18T10:09:12;17.65;;;10.18;;
66143;SDS011;52947;50.842;6.084;2022-12-18T10:11:47;18.00;;;8.52;;
66143;SDS011;52947;50.842;6.084;2022-12-18T10:14:22;17.88;;;9.30;;
66143;SDS011;52947;50.842;6.084;2022-12-18T10:16:58;18.90;;;9.98;;
66143;SDS011;52947;50.842;6.084;2022-12-18T10:19:34;18.35;;;8.80;;
66143;SDS011;52947;50.842;6.084;2022-12-18T10:22:11;16.80;;;8.98;;
66143;SDS011;52947;50.842;6.084;2022-12-18T10:24:55;21.45;;;10.23;;
66143;SDS011;52947;50.842;6.084;2022-12-18T10:27:29;18.52;;;9.95;;
66143;SDS011;52947;50.842;6.084;2022-12-18T10:29:58;21.67;;;10.60;;
66143;SDS011;52947;50.842;6.084;2022-12-18T10:32:29;17.65;;;10.38;;
66143;SDS011;52947;50.842;6.084;2022-12-18T10:34:59;18.70;;;9.77;;
66143;SDS011;52947;50.842;6.084;2022-12-18T10:37:27;16.17;;;9.57;;
66143;SDS011;52947;50.842;6.084;2022-12-18T10:40:11;16.90;;;9.25;;
66143;SDS011;52947;50.842;6.084;2022-12-18T10:42:49;16.77;;;8.48;;
66143;SDS011;52947;50.842;6.084;2022-12-18T10:45:31;16.48;;;9.32;;
66143;SDS011;52947;50.842;6.084;2022-12-18T10:47:59;19.70;;;10.10;;
66143;SDS011;52947;50.842;6.084;2022-12-18T10:50:30;20.67;;;10.23;;
66143;SDS011;52947;50.842;6.084;2022-12-18T10:53:21;21.20;;;9.77;;
66143;SDS011;52947;50.842;6.084;2022-12-18T10:55:52;22.58;;;11.02;;
66143;SDS011;52947;50.842;6.084;2022-12-18T10:58:22;17.67;;;10.13;;
66143;SDS011;52947;50.842;6.084;2022-12-18T11:01:03;21.25;;;10.00;;
66143;SDS011;52947;50.842;6.084;2022-12-18T11:03:34;17.92;;;9.27;;
66143;SDS011;52947;50.842;6.084;2022-12-18T11:06:06;20.63;;;10.77;;
66143;SDS011;52947;50.842;6.084;2022-12-18T11:08:36;18.50;;;10.75;;
66143;SDS011;52947;50.842;6.084;2022-12-18T11:11:07;20.38;;;10.30;;
66143;SDS011;52947;50.842;6.084;2022-12-18T11:13:49;21.65;;;10.45;;
66143;SDS011;52947;50.842;6.084;2022-12-18T11:16:28;21.33;;;9.93;;
66143;SDS011;52947;50.842;6.084;2022-12-18T11:19:08;16.70;;;9.60;;
66143;SDS011;52947;50.842;6.084;2022-12-18T11:21:43;18.63;;;9.77;;
66143;SDS011;52947;50.842;6.084;2022-12-18T11:24:15;23.10;;;10.68;;
66143;SDS011;52947;50.842;6.084;2022-12-18T11:26:48;17.58;;;9.77;;
66143;SDS011;52947;50.842;6.084;2022-12-18T11:29:27;20.02;;;10.10;;
66143;SDS011;52947;50.842;6.084;2022-12-18T11:34:50;19.88;;;10.68;;
66143;SDS011;52947;50.842;6.084;2022-12-18T11:37:26;19.92;;;9.52;;
66143;SDS011;52947;50.842;6.084;2022-12-18T11:39:55;28.42;;;12.07;;
66143;SDS011;52947;50.842;6.084;2022-12-18T11:42:27;22.75;;;11.23;;
66143;SDS011;52947;50.842;6.084;2022-12-18T11:44:59;20.63;;;11.45;;
66143;SDS011;52947;50.842;6.084;2022-12-18T11:47:31;21.17;;;10.05;;
66143;SDS011;52947;50.842;6.084;2022-12-18T11:50:10;21.20;;;10.65;;
66143;SDS011;52947;50.842;6.084;2022-12-18T11:52:43;20.30;;;10.82;;
66143;SDS011;52947;50.842;6.084;2022-12-18T11:55:11;21.85;;;12.52;;
66143;SDS011;52947;50.842;6.084;2022-12-18T11:57:43;24.35;;;12.02;;
66143;SDS011;52947;50.842;6.084;2022-12-18T12:00:18;22.65;;;11.57;;
66143;SDS011;52947;50.842;6.084;2022-12-18T12:02:57;20.92;;;10.93;;
66143;SDS011;52947;50.842;6.084;2022-12-18T12:05:47;21.02;;;11.50;;
66143;SDS011;52947;50.842;6.084;2022-12-18T12:08:36;19.38;;;11.10;;
66143;SDS011;52947;50.842;6.084;2022-12-18T12:11:16;21.85;;;11.80;;
66143;SDS011;52947;50.842;6.084;2022-12-18T12:13:59;22.90;;;12.32;;
66143;SDS011;52947;50.842;6.084;2022-12-18T12:16:37;25.67;;;12.85;;
66143;SDS011;52947;50.842;6.084;2022-12-18T12:19:17;26.33;;;12.75;;
66143;SDS011;52947;50.842;6.084;2022-12-18T12:21:55;22.38;;;11.88;;
66143;SDS011;52947;50.842;6.084;2022-12-18T12:24:36;24.30;;;12.25;;
66143;SDS011;52947;50.842;6.084;2022-12-18T12:27:13;18.92;;;10.07;;
66143;SDS011;52947;50.842;6.084;2022-12-18T12:29:50;23.55;;;11.80;;
66143;SDS011;52947;50.842;6.084;2022-12-18T12:32:31;23.98;;;12.20;;
66143;SDS011;52947;50.842;6.084;2022-12-18T12:35:13;26.80;;;12.25;;
66143;SDS011;52947;50.842;6.084;2022-12-18T12:37:49;22.63;;;12.75;;
66143;SDS011;52947;50.842;6.084;2022-12-18T12:40:33;23.48;;;11.75;;
66143;SDS011;52947;50.842;6.084;2022-12-18T12:43:24;21.25;;;11.15;;
66143;SDS011;52947;50.842;6.084;2022-12-18T12:45:58;24.02;;;12.52;;
66143;SDS011;52947;50.842;6.084;2022-12-18T12:48:34;21.65;;;10.93;;
66143;SDS011;52947;50.842;6.084;2022-12-18T12:51:08;20.73;;;10.20;;
66143;SDS011;52947;50.842;6.084;2022-12-18T12:53:40;23.55;;;10.57;;
66143;SDS011;52947;50.842;6.084;2022-12-18T12:56:11;23.10;;;11.93;;
66143;SDS011;52947;50.842;6.084;2022-12-18T12:58:45;24.00;;;12.20;;
66143;SDS011;52947;50.842;6.084;2022-12-18T13:01:23;22.67;;;11.15;;
66143;SDS011;52947;50.842;6.084;2022-12-18T13:03:57;20.10;;;10.80;;
66143;SDS011;52947;50.842;6.084;2022-12-18T13:06:37;22.52;;;11.60;;
66143;SDS011;52947;50.842;6.084;2022-12-18T13:09:11;29.17;;;12.75;;
66143;SDS011;52947;50.842;6.084;2022-12-18T13:11:41;20.73;;;10.45;;
66143;SDS011;52947;50.842;6.084;2022-12-18T13:14:29;21.15;;;11.52;;
66143;SDS011;52947;50.842;6.084;2022-12-18T13:17:14;23.40;;;11.95;;
66143;SDS011;52947;50.842;6.084;2022-12-18T13:19:44;22.40;;;12.70;;
66143;SDS011;52947;50.842;6.084;2022-12-18T13:22:20;22.63;;;11.93;;
66143;SDS011;52947;50.842;6.084;2022-12-18T13:24:49;28.23;;;12.60;;
66143;SDS011;52947;50.842;6.084;2022-12-18T13:30:43;20.75;;;11.95;;
66143;SDS011;52947;50.842;6.084;2022-12-18T13:36:36;21.00;;;10.88;;
66143;SDS011;52947;50.842;6.084;2022-12-18T13:39:11;20.65;;;10.82;;
66143;SDS011;52947;50.842;6.084;2022-12-18T13:48:29;25.45;;;10.65;;
66143;SDS011;52947;50.842;6.084;2022-12-18T13:51:01;24.75;;;12.20;;
66143;SDS011;52947;50.842;6.084;2022-12-18T13:53:36;21.63;;;12.00;;
66143;SDS011;52947;50.842;6.084;2022-12-18T13:56:10;23.20;;;11.85;;
66143;SDS011;52947;50.842;6.084;2022-12-18T13:58:43;18.30;;;9.80;;
66143;SDS011;52947;50.842;6.084;2022-12-18T14:01:22;23.67;;;11.55;;
66143;SDS011;52947;50.842;6.084;2022-12-18T14:03:51;21.40;;;12.18;;
66143;SDS011;52947;50.842;6.084;2022-12-18T14:06:35;19.65;;;11.38;;
66143;SDS011;52947;50.842;6.084;2022-12-18T14:09:03;21.55;;;10.90;;
66143;SDS011;52947;50.842;6.084;2022-12-18T14:11:34;24.00;;;12.85;;
66143;SDS011;52947;50.842;6.084;2022-12-18T14:14:06;20.67;;;12.32;;
66143;SDS011;52947;50.842;6.084;2022-12-18T14:16:35;22.38;;;13.50;;
66143;SDS011;52947;50.842;6.084;2022-12-18T14:19:04;22.55;;;11.75;;
66143;SDS011;52947;50.842;6.084;2022-12-18T14:21:44;23.95;;;12.85;;
66143;SDS011;52947;50.842;6.084;2022-12-18T14:24:14;22.10;;;12.27;;
66143;SDS011;52947;50.842;6.084;2022-12-18T14:26:45;22.63;;;13.00;;
66143;SDS011;52947;50.842;6.084;2022-12-18T14:29:21;24.38;;;13.38;;
66143;SDS011;52947;50.842;6.084;2022-12-18T14:32:09;22.45;;;11.88;;
66143;SDS011;52947;50.842;6.084;2022-12-18T14:34:44;23.17;;;12.82;;
66143;SDS011;52947;50.842;6.084;2022-12-18T14:37:14;22.75;;;12.15;;
66143;SDS011;52947;50.842;6.084;2022-12-18T14:39:53;23.25;;;11.85;;
66143;SDS011;52947;50.842;6.084;2022-12-18T14:42:23;24.25;;;13.25;;
66143;SDS011;52947;50.842;6.084;2022-12-18T14:47:57;25.38;;;13.02;;
66143;SDS011;52947;50.842;6.084;2022-12-18T14:50:25;27.20;;;13.00;;
66143;SDS011;52947;50.842;6.084;2022-12-18T14:52:53;26.98;;;13.73;;
66143;SDS011;52947;50.842;6.084;2022-12-18T14:55:21;28.48;;;15.40;;
66143;SDS011;52947;50.842;6.084;2022-12-18T14:57:49;27.23;;;13.98;;
66143;SDS011;52947;50.842;6.084;2022-12-18T15:00:20;24.85;;;13.05;;
66143;SDS011;52947;50.842;6.084;2022-12-18T15:02:50;32.40;;;15.32;;
66143;SDS011;52947;50.842;6.084;2022-12-18T15:05:26;29.58;;;15.95;;
66143;SDS011;52947;50.842;6.084;2022-12-18T15:07:55;31.30;;;15.98;;
66143;SDS011;52947;50.842;6.084;2022-12-18T15:10:25;35.80;;;17.10;;
66143;SDS011;52947;50.842;6.084;2022-12-18T15:13:06;37.45;;;17.27;;
66143;SDS011;52947;50.842;6.084;2022-12-18T15:15:46;32.50;;;15.77;;
66143;SDS011;52947;50.842;6.084;2022-12-18T15:18:16;29.38;;;16.60;;
66143;SDS011;52947;50.842;6.084;2022-12-18T15:20:47;36.97;;;17.45;;
66143;SDS011;52947;50.842;6.084;2022-12-18T15:23:17;29.83;;;16.48;;
66143;SDS011;52947;50.842;6.084;2022-12-18T15:25:48;35.42;;;16.92;;
66143;SDS011;52947;50.842;6.084;2022-12-18T15:28:22;33.25;;;14.95;;
66143;SDS011;52947;50.842;6.084;2022-12-18T15:30:59;29.42;;;15.80;;
66143;SDS011;52947;50.842;6.084;2022-12-18T15:33:32;33.55;;;16.63;;
66143;SDS011;52947;50.842;6.084;2022-12-18T15:36:04;31.23;;;16.05;;
66143;SDS011;52947;50.842;6.084;2022-12-18T15:38:36;32.55;;;16.45;;
66143;SDS011;52947;50.842;6.084;2022-12-18T15:41:11;29.98;;;16.40;;
66143;SDS011;52947;50.842;6.084;2022-12-18T15:43:48;36.50;;;18.30;;